AirNav  
 
 758 users online  

F95 Calhoun County Airport
Blountstown, Florida, USA


FAA INFORMATION EFFECTIVE 09 NOVEMBER 2017

Location

FAA Identifier: F95
Lat/Long: 30-29-13.9550N / 085-06-49.6650W
30-29.232583N / 085-06.827750W
30.4872097 / -85.1137958
(estimated)
Elevation: 122 ft. / 37 m (estimated)
Variation: 02W (1995)
From city: 5 miles NW of BLOUNTSTOWN, FL
Time zone: UTC -6 (UTC -5 during Daylight Saving Time)
Zip code: 32421

Airport Operations

Airport use: Open to the public
Activation date: 12/1996
Control tower: no
ARTCC: JACKSONVILLE CENTER
FSS: GAINESVILLE FLIGHT SERVICE STATION
NOTAMs facility: GNV (NOTAM-D service available)
Attendance: MON-FRI 0700-1500
Wind indicator: lighted
Segmented circle: yes
Lights: ACTVT MIRL RY 18/36 AND PAPI RYS 18 & 36 - CTAF.
Beacon: white (unlighted land airport)
Operates sunset to sunrise.

Airport Communications

CTAF: 122.9
WX AWOS-AV: 119.350 (850-674-1347)

Nearby radio navigation aids

VOR radial/distance  VOR name  Freq  Var
MAIr178/17.9MARIANNA VORTAC114.0000E
HLLr057/36.6HANDLE VORTAC114.3004W
SZWr262/38.5SEMINOLE VORTAC117.5002E

 
NDB name  Hdg/Dist  Freq  Var  ID
SOYYA168/23.832902WSMY ... -- -.--
LYNNE078/35.927804WPFN .--. ..-. -.

Airport Services

Fuel available: 100LL JET-A
Parking: hangars and tiedowns
Airframe service: MAJOR
Powerplant service: MAJOR
Bottled oxygen: NONE
Bulk oxygen: NONE

Runway Information

Runway 18/36

Dimensions: 3100 x 60 ft. / 945 x 18 m
Surface: asphalt, in good condition
Runway edge lights: medium intensity
RUNWAY 18  RUNWAY 36
Latitude: 30-29.488333N30-28.976833N
Longitude: 085-06.829333W085-06.826167W
Elevation: 120.9 ft.118.1 ft.
Gradient: 0.1% DOWN0.1% UP
Traffic pattern: leftleft
Runway heading: 182 magnetic, 180 true002 magnetic, 360 true
Markings: nonprecision, in good conditionnonprecision, in good condition
Visual slope indicator: 2-light PAPI on left (3.00 degrees glide path)2-light PAPI on left (3.00 degrees glide path)
Obstructions: 58 ft. tree, 970 ft. from runway, 125 ft. right of centerline, 13:1 slope to clear
APPROACH SLOPE 33:1 TO THE DSPLCD THLD DUE TO 68 FT TREES 40 FT R OF CNTRLN AND 2145 FT FRM RY END.
15 ft. road, 425 ft. from runway, 125 ft. right of centerline, 15:1 slope to clear

Airport Ownership and Management from official FAA records

Ownership: Publicly-owned
Owner: CALHOUN COUNTY
20589 CENTRAL AVENUE EAST
BLOUNTSTOWN, FL 32424
Phone 850-674-4545
Manager: KEVIN PARISH
16701 AGRIPARK ROAD
ALTHA, FL 32421
Phone (850) 674-2499
CELL: 850-643-7582

Airport Operational Statistics

Aircraft based on the field: 11
Single engine airplanes: 11
    
Aircraft operations: avg 38/week *
50% transient general aviation
50% local general aviation
* for 12-month period ending 30 June 2016

Instrument Procedures

There are no published instrument procedures at F95.

Some nearby airports with instrument procedures:

KMAI - Marianna Municipal Airport (21 nm N)
2J9 - Quincy Municipal Airport (30 nm E)
1J0 - Tri-County Airport (33 nm NW)
17J - Donalsonville Municipal Airport (33 nm N)
KPAM - Tyndall Air Force Base (35 nm SW)
 
Loc | Ops | Rwys | IFR | FBO | Links
Com | Nav | Svcs | Stats | Notes


 
Area around F95 (Calhoun County Airport)
 
Road maps at: MapQuest Bing Google
 
Aerial photo
WARNING: Photo may not be current or correct
Aerial photo of F95 (Calhoun County Airport)
Photo by Brian Christopher
Photo taken 08-Aug-2010

Do you have a better or more recent aerial photo of Calhoun County Airport that you would like to share? If so, please send us your photo.

 
Sectional chart

 
Airport distance calculator
Flying to Calhoun County Airport? Find the distance to fly.

From to F95

Sunrise and sunset
Times for 18-Nov-2017
 Local
(UTC-6)
 Zulu
(UTC)
Morning civil twilight05:4411:44
Sunrise06:1012:10
Sunset16:4122:41
Evening civil twilight17:0723:07

Current date and time
Zulu (UTC)  19-Nov-2017 03:07:36
Local (UTC-6)  18-Nov-2017 21:07:36
 
METAR
KMAI 
21nm N 
190253Z AUTO 19011KT 10SM CLR 19/18 A2984 RMK AO2 SLP102 60000 T01940178 58013
K2J9 
30nm E 
190255Z AUTO 21006KT 10SM FEW028 BKN032 OVC039 18/16 A2990 RMK AO2
KPAM 
34nm SW 
190256Z AUTO 21011KT 10SM CLR 22/20 A2988 RMK AO2 DZB0156 SLP121 P0000 60000 T02240197 58006 TSNO $
KECP 
36nm W 
190253Z 19010KT 10SM SCT047 OVC060 23/19 A2986 RMK AO2 SLP123 T02280189 58009
KBGE 
38nm NE 
190255Z AUTO 20009G15KT 10SM CLR 20/18 A2985 RMK AO2
KTLH 
40nm E 
190253Z 19005KT 10SM SCT045 18/16 A2989 RMK AO2 SLP121 T01780161 58005
TAF
KPAM 
34nm SW 
182354Z 1823/2001 18012G18KT 9999 FEW025 SCT100 QNH2990INS BECMG 1823/1824 25012KT 9999 BKN020 520153 QNH2980INS BECMG 1908/1909 31015G25KT 8000 -SHRA OVC010 510102 QNH2982INS BECMG 1911/1912 35015G30KT 9000 -SHRA BKN045 510033 QNH2995INS BECMG 1914/1915 36015G25KT 9999 NSW FEW065 510043 520342 QNH3003INS BECMG 1917/1918 35012G18KT 9999 FEW320 QNH3001INS TX27/1823Z TN09/1911Z LAST NO AMDS AFT 1900 NEXT 1910
KECP 
36nm W 
181720Z 1818/1918 20010G20KT P6SM BKN040 FM190600 24010G15KT 6SM -SHRA OVC030 FM190800 34012G20KT P6SM SCT030
KTLH 
40nm E 
181720Z 1818/1918 20008G14KT P6SM SCT040 FM190800 23010G15KT 6SM -SHRA OVC030 FM191100 34012G20KT P6SM SCT030
NOTAMs
Click for the latest NOTAMs
NOTAMs are issued by the DoD/FAA and will open in a separate window not controlled by AirNav.

 

 
 

FBO, Fuel Providers, and Aircraft Ground Support

  
 Business Name 
 
 Contact 
 
 Services / Description 
 
Fuel Prices
 
Comments
  
Calhoun County Airport 850-674-2499
no information available

If you are affiliated with Calhoun County Airport and would like to show here your services, contact info, web link, logo, and more, click here
100LL Jet A
SS $3.78 $3.52 
 Updated 13-Nov-2017
 
   1 read write
SS=Self service
Update Fuel Prices
 

Aviation Businesses, Services, and Facilities

  
 Business Name 
 
 Contact 
 
 Services / Description 
 
Distance
 
Comments
  
 Sunset Eagle Aviation, LLC
850-625-3572
850-691-2318
[web site]
[email]
We strive to bring affordability back to General Aviation!

More info about Sunset Eagle Aviation, LLC
on airport  
   write
 

Would you like to see your business listed on this page?

 If your business provides an interesting product or service to pilots, flight crews, aircraft, or users of the Calhoun County Airport, you should consider listing it here.  To start the listing process, click on the button below
 
Add a business
 

Other Pages about Calhoun County Airport

Update a link
 
Copyright © AirNav, LLC. All rights reserved. Privacy Policy  Contact